Korsakov, Russia
Current Conditions -  °F | °C
As of 4:00 PM on Thursday 23 Oct 2014 (Local Time) from UHSS Reporting Station
Clear Clear  
Wind Chill: 52°   Ceiling: Unl
Heat Index: 52°   Visibility: 6mi
Dew Point: 21°   Wind: 16mph
Humidity: 30%   Direction: 230°SW
Pressure: 29.94"   Gusts: NA
Location:  46.64°N, 142.78°E
Report Text: UHSS 230500Z 23007MPS 9999 NSC 11/M06 Q1014 NOSIG RMKQFE759/1013 19CLRD70
Loading
Personal Weather Stations






























Interactive Weather Map
Tropical Storm Tracking
New forecast layout! Learn more

10-Day Weather Forecast

Advertisements
Track Severe Weather on mobile